sensor_id;sensor_type;location;lat;lon;timestamp;pressure;altitude;pressure_sealevel;temperature;humidity
9523;BME280;63165;43.016;25.784;2023-02-28T00:00:51;100826.69;;;10.40;87.71
9523;BME280;63165;43.016;25.784;2023-02-28T00:03:20;100823.25;;;10.33;87.57
9523;BME280;63165;43.016;25.784;2023-02-28T00:05:48;100825.84;;;10.35;86.99
9523;BME280;63165;43.016;25.784;2023-02-28T00:08:15;100835.44;;;10.40;87.44
9523;BME280;63165;43.016;25.784;2023-02-28T00:10:42;100838.03;;;10.42;87.29
9523;BME280;63165;43.016;25.784;2023-02-28T00:13:10;100841.50;;;10.38;87.19
9523;BME280;63165;43.016;25.784;2023-02-28T00:15:38;100851.09;;;10.46;87.46
9523;BME280;63165;43.016;25.784;2023-02-28T00:18:06;100843.25;;;10.48;87.32
9523;BME280;63165;43.016;25.784;2023-02-28T00:20:35;100849.34;;;10.48;87.73
9523;BME280;63165;43.016;25.784;2023-02-28T00:23:02;100842.38;;;10.44;87.56
9523;BME280;63165;43.016;25.784;2023-02-28T00:25:30;100845.88;;;10.46;87.62
9523;BME280;63165;43.016;25.784;2023-02-28T00:27:57;100839.75;;;10.40;87.72
9523;BME280;63165;43.016;25.784;2023-02-28T00:30:25;100838.03;;;10.40;87.58
9523;BME280;63165;43.016;25.784;2023-02-28T00:32:52;100838.94;;;10.36;87.92
9523;BME280;63165;43.016;25.784;2023-02-28T00:35:19;100838.91;;;10.39;88.39
9523;BME280;63165;43.016;25.784;2023-02-28T00:37:49;100843.28;;;10.42;87.78
9523;BME280;63165;43.016;25.784;2023-02-28T00:40:16;100838.91;;;10.42;87.94
9523;BME280;63165;43.016;25.784;2023-02-28T00:42:44;100850.22;;;10.43;88.05
9523;BME280;63165;43.016;25.784;2023-02-28T00:45:11;100850.22;;;10.43;88.08
9523;BME280;63165;43.016;25.784;2023-02-28T00:47:39;100848.50;;;10.40;88.53
9523;BME280;63165;43.016;25.784;2023-02-28T00:50:07;100846.75;;;10.41;88.62
9523;BME280;63165;43.016;25.784;2023-02-28T00:52:34;100839.75;;;10.40;88.56
9523;BME280;63165;43.016;25.784;2023-02-28T00:55:04;100843.25;;;10.43;88.95
9523;BME280;63165;43.016;25.784;2023-02-28T00:57:32;100842.38;;;10.40;88.74
9523;BME280;63165;43.016;25.784;2023-02-28T00:59:59;100836.28;;;10.44;88.67
9523;BME280;63165;43.016;25.784;2023-02-28T01:02:27;100813.59;;;10.40;88.24
9523;BME280;63165;43.016;25.784;2023-02-28T01:04:54;100818.84;;;10.40;87.84
9523;BME280;63165;43.016;25.784;2023-02-28T01:07:22;100817.97;;;10.38;88.08
9523;BME280;63165;43.016;25.784;2023-02-28T01:09:50;100811.88;;;10.36;88.51
9523;BME280;63165;43.016;25.784;2023-02-28T01:12:19;100800.56;;;10.32;88.53
9523;BME280;63165;43.016;25.784;2023-02-28T01:14:46;100810.16;;;10.35;89.28
9523;BME280;63165;43.016;25.784;2023-02-28T01:17:13;100823.25;;;10.36;88.81
9523;BME280;63165;43.016;25.784;2023-02-28T01:19:41;100822.34;;;10.28;89.15
9523;BME280;63165;43.016;25.784;2023-02-28T01:22:08;100827.56;;;10.29;89.20
9523;BME280;63165;43.016;25.784;2023-02-28T01:24:36;100811.88;;;10.29;89.97
9523;BME280;63165;43.016;25.784;2023-02-28T01:27:04;100815.34;;;10.28;89.67
9523;BME280;63165;43.016;25.784;2023-02-28T01:29:33;100806.69;;;10.25;89.39
9523;BME280;63165;43.016;25.784;2023-02-28T01:32:00;100804.91;;;10.25;89.48
9523;BME280;63165;43.016;25.784;2023-02-28T01:34:28;100808.44;;;10.31;88.84
9523;BME280;63165;43.016;25.784;2023-02-28T01:36:55;100805.78;;;10.34;88.95
9523;BME280;63165;43.016;25.784;2023-02-28T01:39:24;100815.38;;;10.35;88.77
9523;BME280;63165;43.016;25.784;2023-02-28T01:41:52;100814.50;;;10.36;88.58
9523;BME280;63165;43.016;25.784;2023-02-28T01:47:26;100802.28;;;10.28;88.00
9523;BME280;63165;43.016;25.784;2023-02-28T01:49:54;100815.34;;;10.38;87.92
9523;BME280;63165;43.016;25.784;2023-02-28T01:52:23;100812.78;;;10.33;88.33
9523;BME280;63165;43.016;25.784;2023-02-28T01:54:52;100818.88;;;10.34;87.89
9523;BME280;63165;43.016;25.784;2023-02-28T01:57:23;100813.66;;;10.31;88.45
9523;BME280;63165;43.016;25.784;2023-02-28T01:59:55;100809.25;;;10.28;89.12
9523;BME280;63165;43.016;25.784;2023-02-28T02:02:27;100815.38;;;10.27;89.49
9523;BME280;63165;43.016;25.784;2023-02-28T02:04:58;100814.50;;;10.28;89.72
9523;BME280;63165;43.016;25.784;2023-02-28T02:07:29;100815.34;;;10.28;89.63
9523;BME280;63165;43.016;25.784;2023-02-28T02:10:05;100801.44;;;10.22;88.93
9523;BME280;63165;43.016;25.784;2023-02-28T02:12:45;100831.94;;;10.32;87.78
9523;BME280;63165;43.016;25.784;2023-02-28T02:15:22;100834.56;;;10.35;88.21
9523;BME280;63165;43.016;25.784;2023-02-28T02:17:57;100837.22;;;10.31;88.31
9523;BME280;63165;43.016;25.784;2023-02-28T02:21:01;100832.81;;;10.26;88.91
9523;BME280;63165;43.016;25.784;2023-02-28T02:27:11;100834.56;;;10.18;88.70
9523;BME280;63165;43.016;25.784;2023-02-28T02:29:57;100838.94;;;10.16;89.32
9523;BME280;63165;43.016;25.784;2023-02-28T02:33:04;100827.59;;;10.17;89.61
9523;BME280;63165;43.016;25.784;2023-02-28T02:35:39;100819.78;;;10.14;88.88
9523;BME280;63165;43.016;25.784;2023-02-28T02:38:12;100832.81;;;10.22;89.35
9523;BME280;63165;43.016;25.784;2023-02-28T02:40:49;100841.53;;;10.22;89.26
9523;BME280;63165;43.016;25.784;2023-02-28T02:43:24;100852.00;;;10.25;89.33
9523;BME280;63165;43.016;25.784;2023-02-28T02:45:55;100851.97;;;10.28;89.51
9523;BME280;63165;43.016;25.784;2023-02-28T02:48:25;100858.09;;;10.23;89.66
9523;BME280;63165;43.016;25.784;2023-02-28T02:50:59;100857.22;;;10.21;89.72
9523;BME280;63165;43.016;25.784;2023-02-28T02:53:31;100844.16;;;10.15;89.92
9523;BME280;63165;43.016;25.784;2023-02-28T02:56:01;100846.75;;;10.21;89.04
9523;BME280;63165;43.016;25.784;2023-02-28T02:58:33;100852.88;;;10.21;88.93
9523;BME280;63165;43.016;25.784;2023-02-28T03:01:10;100838.91;;;10.19;88.66
9523;BME280;63165;43.016;25.784;2023-02-28T03:03:38;100843.28;;;10.17;88.63
9523;BME280;63165;43.016;25.784;2023-02-28T03:06:08;100852.00;;;10.13;88.60
9523;BME280;63165;43.016;25.784;2023-02-28T03:08:37;100856.38;;;10.16;88.59
9523;BME280;63165;43.016;25.784;2023-02-28T03:11:06;100858.13;;;10.10;88.25
9523;BME280;63165;43.016;25.784;2023-02-28T03:13:51;100856.41;;;10.06;87.89
9523;BME280;63165;43.016;25.784;2023-02-28T03:16:33;100874.69;;;10.09;88.31
9523;BME280;63165;43.016;25.784;2023-02-28T03:19:26;100875.59;;;10.01;88.35
9523;BME280;63165;43.016;25.784;2023-02-28T03:22:06;100878.19;;;9.98;88.62
9523;BME280;63165;43.016;25.784;2023-02-28T03:24:44;100884.28;;;10.03;88.84
9523;BME280;63165;43.016;25.784;2023-02-28T03:27:21;100873.84;;;10.04;88.61
9523;BME280;63165;43.016;25.784;2023-02-28T03:29:54;100879.91;;;10.02;88.57
9523;BME280;63165;43.016;25.784;2023-02-28T03:32:28;100877.31;;;10.03;88.34
9523;BME280;63165;43.016;25.784;2023-02-28T03:35:00;100877.31;;;10.06;88.20
9523;BME280;63165;43.016;25.784;2023-02-28T03:37:35;100880.78;;;10.05;88.17
9523;BME280;63165;43.016;25.784;2023-02-28T03:40:08;100886.91;;;10.09;88.13
9523;BME280;63165;43.016;25.784;2023-02-28T03:42:40;100883.41;;;10.05;88.03
9523;BME280;63165;43.016;25.784;2023-02-28T03:45:13;100882.53;;;10.00;88.21
9523;BME280;63165;43.016;25.784;2023-02-28T03:47:47;100888.63;;;10.04;87.81
9523;BME280;63165;43.016;25.784;2023-02-28T03:50:16;100899.13;;;10.01;87.39
9523;BME280;63165;43.016;25.784;2023-02-28T03:52:49;100899.09;;;9.98;86.78
9523;BME280;63165;43.016;25.784;2023-02-28T03:55:18;100902.59;;;10.00;87.56
9523;BME280;63165;43.016;25.784;2023-02-28T03:57:53;100893.00;;;9.94;86.86
9523;BME280;63165;43.016;25.784;2023-02-28T04:00:27;100889.50;;;10.00;87.02
9523;BME280;63165;43.016;25.784;2023-02-28T04:02:58;100878.19;;;9.96;86.84
9523;BME280;63165;43.016;25.784;2023-02-28T04:05:27;100894.75;;;10.01;86.38
9523;BME280;63165;43.016;25.784;2023-02-28T04:08:03;100874.72;;;9.89;86.10
9523;BME280;63165;43.016;25.784;2023-02-28T04:10:30;100889.50;;;9.97;85.70
9523;BME280;63165;43.016;25.784;2023-02-28T04:12:58;100897.38;;;9.94;85.71
9523;BME280;63165;43.016;25.784;2023-02-28T04:15:25;100889.50;;;9.89;86.08
9523;BME280;63165;43.016;25.784;2023-02-28T04:17:53;100898.22;;;9.94;86.29
9523;BME280;63165;43.016;25.784;2023-02-28T04:20:20;100894.75;;;9.92;86.09
9523;BME280;63165;43.016;25.784;2023-02-28T04:22:47;100897.34;;;9.97;86.00
9523;BME280;63165;43.016;25.784;2023-02-28T04:25:16;100904.34;;;9.98;85.92
9523;BME280;63165;43.016;25.784;2023-02-28T04:27:44;100907.81;;;9.97;85.91
9523;BME280;63165;43.016;25.784;2023-02-28T04:30:12;100912.16;;;9.93;86.16
9523;BME280;63165;43.016;25.784;2023-02-28T04:32:39;100901.72;;;9.90;85.73
9523;BME280;63165;43.016;25.784;2023-02-28T04:35:08;100907.84;;;9.95;85.88
9523;BME280;63165;43.016;25.784;2023-02-28T04:37:35;100900.88;;;9.89;85.75
9523;BME280;63165;43.016;25.784;2023-02-28T04:40:04;100902.59;;;9.94;85.91
9523;BME280;63165;43.016;25.784;2023-02-28T04:42:33;100900.84;;;9.94;86.07
9523;BME280;63165;43.016;25.784;2023-02-28T04:45:02;100905.22;;;9.95;85.48
9523;BME280;63165;43.016;25.784;2023-02-28T04:47:29;100898.25;;;9.97;85.31
9523;BME280;63165;43.016;25.784;2023-02-28T04:49:57;100893.88;;;9.96;84.99
9523;BME280;63165;43.016;25.784;2023-02-28T04:52:24;100903.47;;;9.99;85.15
9523;BME280;63165;43.016;25.784;2023-02-28T04:54:54;100903.47;;;9.99;85.56
9523;BME280;63165;43.016;25.784;2023-02-28T04:57:21;100899.97;;;10.03;85.20
9523;BME280;63165;43.016;25.784;2023-02-28T04:59:50;100906.94;;;10.04;85.27
9523;BME280;63165;43.016;25.784;2023-02-28T05:02:18;100904.31;;;10.04;85.07
9523;BME280;63165;43.016;25.784;2023-02-28T05:04:46;100898.22;;;10.00;84.88
9523;BME280;63165;43.016;25.784;2023-02-28T05:07:14;100879.06;;;9.92;85.28
9523;BME280;63165;43.016;25.784;2023-02-28T05:09:41;100905.22;;;10.03;85.36
9523;BME280;63165;43.016;25.784;2023-02-28T05:12:09;100902.59;;;10.03;85.15
9523;BME280;63165;43.016;25.784;2023-02-28T05:14:36;100917.38;;;10.04;84.98
9523;BME280;63165;43.016;25.784;2023-02-28T05:17:05;100914.78;;;10.05;85.26
9523;BME280;63165;43.016;25.784;2023-02-28T05:19:32;100915.66;;;10.03;85.72
9523;BME280;63165;43.016;25.784;2023-02-28T05:21:59;100915.66;;;10.04;85.16
9523;BME280;63165;43.016;25.784;2023-02-28T05:24:28;100911.28;;;10.02;85.66
9523;BME280;63165;43.016;25.784;2023-02-28T05:26:55;100913.06;;;10.01;85.36
9523;BME280;63165;43.016;25.784;2023-02-28T05:29:22;100918.25;;;9.98;85.64
9523;BME280;63165;43.016;25.784;2023-02-28T05:31:50;100913.06;;;9.95;85.72
9523;BME280;63165;43.016;25.784;2023-02-28T05:34:18;100925.25;;;10.01;85.85
9523;BME280;63165;43.016;25.784;2023-02-28T05:36:45;100919.13;;;10.02;85.65
9523;BME280;63165;43.016;25.784;2023-02-28T05:39:13;100910.44;;;10.00;85.67
9523;BME280;63165;43.016;25.784;2023-02-28T05:41:40;100918.28;;;10.03;86.00
9523;BME280;63165;43.016;25.784;2023-02-28T05:44:08;100920.91;;;10.03;85.89
9523;BME280;63165;43.016;25.784;2023-02-28T05:46:36;100934.84;;;10.05;85.65
9523;BME280;63165;43.016;25.784;2023-02-28T05:49:03;100930.47;;;10.07;84.98
9523;BME280;63165;43.016;25.784;2023-02-28T05:51:32;100934.84;;;10.03;85.44
9523;BME280;63165;43.016;25.784;2023-02-28T05:54:02;100935.69;;;10.02;85.27
9523;BME280;63165;43.016;25.784;2023-02-28T05:56:29;100948.78;;;10.01;85.56
9523;BME280;63165;43.016;25.784;2023-02-28T05:58:56;100944.41;;;10.00;85.20
9523;BME280;63165;43.016;25.784;2023-02-28T06:01:31;100951.38;;;10.07;85.85
9523;BME280;63165;43.016;25.784;2023-02-28T06:03:59;100948.75;;;10.11;85.47
9523;BME280;63165;43.016;25.784;2023-02-28T06:06:27;100950.53;;;10.13;85.48
9523;BME280;63165;43.016;25.784;2023-02-28T06:08:56;100947.91;;;10.16;85.08
9523;BME280;63165;43.016;25.784;2023-02-28T06:11:24;100945.28;;;10.19;85.52
9523;BME280;63165;43.016;25.784;2023-02-28T06:13:53;100946.16;;;10.21;85.56
9523;BME280;63165;43.016;25.784;2023-02-28T06:16:21;100947.88;;;10.28;85.09
9523;BME280;63165;43.016;25.784;2023-02-28T06:18:49;100940.06;;;10.25;85.62
9523;BME280;63165;43.016;25.784;2023-02-28T06:21:16;100941.78;;;10.29;85.43
9523;BME280;63165;43.016;25.784;2023-02-28T06:23:43;100947.91;;;10.37;85.60
9523;BME280;63165;43.016;25.784;2023-02-28T06:26:12;100947.91;;;10.39;85.37
9523;BME280;63165;43.016;25.784;2023-02-28T06:28:40;100946.16;;;10.39;84.77
9523;BME280;63165;43.016;25.784;2023-02-28T06:31:08;100943.53;;;10.39;85.12
9523;BME280;63165;43.016;25.784;2023-02-28T06:33:36;100952.28;;;10.47;85.21
9523;BME280;63165;43.016;25.784;2023-02-28T06:36:04;100958.38;;;10.49;85.39
9523;BME280;63165;43.016;25.784;2023-02-28T06:38:32;100947.00;;;10.51;84.92
9523;BME280;63165;43.016;25.784;2023-02-28T06:41:00;100945.25;;;10.54;84.68
9523;BME280;63165;43.016;25.784;2023-02-28T06:43:33;100935.66;;;10.58;84.52
9523;BME280;63165;43.016;25.784;2023-02-28T06:46:02;100942.63;;;10.60;83.62
9523;BME280;63165;43.016;25.784;2023-02-28T06:48:30;100936.53;;;10.58;83.62
9523;BME280;63165;43.016;25.784;2023-02-28T06:51:04;100944.38;;;10.63;83.50
9523;BME280;63165;43.016;25.784;2023-02-28T06:53:32;100947.84;;;10.69;83.70
9523;BME280;63165;43.016;25.784;2023-02-28T06:55:59;100934.78;;;10.66;83.77
9523;BME280;63165;43.016;25.784;2023-02-28T06:58:32;100955.69;;;10.76;83.94
9523;BME280;63165;43.016;25.784;2023-02-28T07:01:00;100943.44;;;10.82;84.01
9523;BME280;63165;43.016;25.784;2023-02-28T07:03:27;100951.28;;;10.84;84.09
9523;BME280;63165;43.016;25.784;2023-02-28T07:05:54;100948.69;;;10.88;84.21
9523;BME280;63165;43.016;25.784;2023-02-28T07:08:23;100939.94;;;10.86;84.05
9523;BME280;63165;43.016;25.784;2023-02-28T07:10:52;100950.41;;;10.93;83.56
9523;BME280;63165;43.016;25.784;2023-02-28T07:13:20;100950.38;;;10.99;83.09
9523;BME280;63165;43.016;25.784;2023-02-28T07:15:54;100952.13;;;11.00;83.01
9523;BME280;63165;43.016;25.784;2023-02-28T07:18:22;100946.84;;;11.07;82.69
9523;BME280;63165;43.016;25.784;2023-02-28T07:20:49;100943.38;;;11.05;82.60
9523;BME280;63165;43.016;25.784;2023-02-28T07:23:17;100942.47;;;11.06;82.20
9523;BME280;63165;43.016;25.784;2023-02-28T07:25:45;100950.28;;;11.14;82.47
9523;BME280;63165;43.016;25.784;2023-02-28T07:28:13;100940.69;;;11.18;82.43
9523;BME280;63165;43.016;25.784;2023-02-28T07:30:40;100939.78;;;11.23;82.05
9523;BME280;63165;43.016;25.784;2023-02-28T07:33:10;100945.88;;;11.27;82.57
9523;BME280;63165;43.016;25.784;2023-02-28T07:35:37;100940.63;;;11.30;82.53
9523;BME280;63165;43.016;25.784;2023-02-28T07:38:05;100944.97;;;11.30;81.44
9523;BME280;63165;43.016;25.784;2023-02-28T07:40:33;100944.97;;;11.30;81.13
9523;BME280;63165;43.016;25.784;2023-02-28T07:43:00;100949.34;;;11.35;81.17
9523;BME280;63165;43.016;25.784;2023-02-28T07:45:29;100945.84;;;11.33;80.47
9523;BME280;63165;43.016;25.784;2023-02-28T07:47:57;100951.91;;;11.43;80.94
9523;BME280;63165;43.016;25.784;2023-02-28T07:50:26;100954.47;;;11.52;81.53
9523;BME280;63165;43.016;25.784;2023-02-28T07:52:56;100957.91;;;11.59;81.90
9523;BME280;63165;43.016;25.784;2023-02-28T07:55:24;100960.50;;;11.65;81.86
9523;BME280;63165;43.016;25.784;2023-02-28T07:57:51;100963.09;;;11.70;81.28
9523;BME280;63165;43.016;25.784;2023-02-28T08:00:18;100968.28;;;11.80;80.92
9523;BME280;63165;43.016;25.784;2023-02-28T08:02:46;100962.97;;;11.87;80.16
9523;BME280;63165;43.016;25.784;2023-02-28T08:05:13;100971.75;;;11.84;79.33
9523;BME280;63165;43.016;25.784;2023-02-28T08:07:42;100973.50;;;11.90;78.24
9523;BME280;63165;43.016;25.784;2023-02-28T08:10:10;100971.72;;;11.93;78.04
9523;BME280;63165;43.016;25.784;2023-02-28T08:12:37;100964.72;;;11.94;78.85
9523;BME280;63165;43.016;25.784;2023-02-28T08:15:05;100972.50;;;12.03;79.05
9523;BME280;63165;43.016;25.784;2023-02-28T08:17:33;100958.53;;;12.01;78.89
9523;BME280;63165;43.016;25.784;2023-02-28T08:20:00;100974.16;;;12.15;78.67
9523;BME280;63165;43.016;25.784;2023-02-28T08:22:27;100974.16;;;12.18;78.33
9523;BME280;63165;43.016;25.784;2023-02-28T08:24:56;100967.06;;;12.23;77.98
9523;BME280;63165;43.016;25.784;2023-02-28T08:27:23;100962.69;;;12.27;77.75
9523;BME280;63165;43.016;25.784;2023-02-28T08:29:50;100960.03;;;12.33;77.95
9523;BME280;63165;43.016;25.784;2023-02-28T08:32:18;100956.47;;;12.37;77.77
9523;BME280;63165;43.016;25.784;2023-02-28T08:34:45;100960.88;;;12.35;77.65
9523;BME280;63165;43.016;25.784;2023-02-28T08:37:12;100953.84;;;12.38;78.17
9523;BME280;63165;43.016;25.784;2023-02-28T08:39:40;100967.75;;;12.45;77.59
9523;BME280;63165;43.016;25.784;2023-02-28T08:42:09;100963.31;;;12.53;77.24
9523;BME280;63165;43.016;25.784;2023-02-28T08:44:37;100933.63;;;12.47;76.77
9523;BME280;63165;43.016;25.784;2023-02-28T08:47:04;100959.72;;;12.62;76.88
9523;BME280;63165;43.016;25.784;2023-02-28T08:49:31;100964.94;;;12.63;75.92
9523;BME280;63165;43.016;25.784;2023-02-28T08:51:59;100957.09;;;12.60;75.49
9523;BME280;63165;43.016;25.784;2023-02-28T08:54:26;100973.75;;;12.61;74.62
9523;BME280;63165;43.016;25.784;2023-02-28T08:56:56;100965.06;;;12.53;75.04
9523;BME280;63165;43.016;25.784;2023-02-28T08:59:25;100972.91;;;12.57;75.59
9523;BME280;63165;43.016;25.784;2023-02-28T09:01:52;100965.97;;;12.50;75.85
9523;BME280;63165;43.016;25.784;2023-02-28T09:04:20;100982.56;;;12.52;76.38
9523;BME280;63165;43.016;25.784;2023-02-28T09:06:47;100987.88;;;12.48;75.84
9523;BME280;63165;43.016;25.784;2023-02-28T09:09:15;100992.22;;;12.49;76.20
9523;BME280;63165;43.016;25.784;2023-02-28T09:11:43;100992.22;;;12.50;76.28
9523;BME280;63165;43.016;25.784;2023-02-28T09:14:10;100989.59;;;12.52;76.29
9523;BME280;63165;43.016;25.784;2023-02-28T09:16:39;100987.81;;;12.52;76.08
9523;BME280;63165;43.016;25.784;2023-02-28T09:19:10;100985.19;;;12.51;76.07
9523;BME280;63165;43.016;25.784;2023-02-28T09:21:37;100980.94;;;12.40;75.08
9523;BME280;63165;43.016;25.784;2023-02-28T09:24:06;100980.03;;;12.43;75.30
9523;BME280;63165;43.016;25.784;2023-02-28T09:26:33;100979.97;;;12.49;75.63
9523;BME280;63165;43.016;25.784;2023-02-28T09:29:01;100987.81;;;12.55;75.94
9523;BME280;63165;43.016;25.784;2023-02-28T09:31:29;100973.78;;;12.55;75.37
9523;BME280;63165;43.016;25.784;2023-02-28T09:33:58;100978.16;;;12.54;75.37
9523;BME280;63165;43.016;25.784;2023-02-28T09:36:27;100979.84;;;12.61;75.85
9523;BME280;63165;43.016;25.784;2023-02-28T09:38:55;100978.09;;;12.60;75.27
9523;BME280;63165;43.016;25.784;2023-02-28T09:41:24;100991.13;;;12.70;75.27
9523;BME280;63165;43.016;25.784;2023-02-28T09:43:55;100996.44;;;12.68;75.44
9523;BME280;63165;43.016;25.784;2023-02-28T09:46:32;100987.72;;;12.61;75.03
9523;BME280;63165;43.016;25.784;2023-02-28T09:49:05;101007.75;;;12.72;75.08
9523;BME280;63165;43.016;25.784;2023-02-28T09:51:40;100993.72;;;12.76;74.78
9523;BME280;63165;43.016;25.784;2023-02-28T09:54:14;100984.06;;;12.79;74.81
9523;BME280;63165;43.016;25.784;2023-02-28T09:56:45;100970.97;;;12.75;75.10
9523;BME280;63165;43.016;25.784;2023-02-28T09:59:29;100993.66;;;12.80;74.95
9523;BME280;63165;43.016;25.784;2023-02-28T10:02:05;100983.22;;;12.76;74.43
9523;BME280;63165;43.016;25.784;2023-02-28T10:04:44;100984.16;;;12.70;74.37
9523;BME280;63165;43.016;25.784;2023-02-28T10:07:28;100981.53;;;12.69;74.88
9523;BME280;63165;43.016;25.784;2023-02-28T10:10:07;100975.41;;;12.68;75.10
9523;BME280;63165;43.016;25.784;2023-02-28T10:12:44;100970.13;;;12.70;75.00
9523;BME280;63165;43.016;25.784;2023-02-28T10:15:14;100967.50;;;12.71;75.07
9523;BME280;63165;43.016;25.784;2023-02-28T10:17:45;100975.34;;;12.76;75.55
9523;BME280;63165;43.016;25.784;2023-02-28T10:20:20;100973.50;;;12.82;75.26
9523;BME280;63165;43.016;25.784;2023-02-28T10:22:53;100976.94;;;12.88;74.89
9523;BME280;63165;43.016;25.784;2023-02-28T10:25:26;100976.94;;;12.88;73.88
9523;BME280;63165;43.016;25.784;2023-02-28T10:27:57;100972.56;;;12.88;73.76
9523;BME280;63165;43.016;25.784;2023-02-28T10:30:26;100971.69;;;12.88;74.65
9523;BME280;63165;43.016;25.784;2023-02-28T10:32:54;100971.63;;;12.92;74.43
9523;BME280;63165;43.016;25.784;2023-02-28T10:35:25;100958.50;;;12.92;74.37
9523;BME280;63165;43.016;25.784;2023-02-28T10:37:55;100962.84;;;12.96;74.34
9523;BME280;63165;43.016;25.784;2023-02-28T10:40:29;100957.56;;;12.98;74.57
9523;BME280;63165;43.016;25.784;2023-02-28T10:42:59;100944.38;;;13.02;74.71
9523;BME280;63165;43.016;25.784;2023-02-28T10:45:28;100947.84;;;13.05;74.13
9523;BME280;63165;43.016;25.784;2023-02-28T10:48:01;100938.25;;;13.02;74.76
9523;BME280;63165;43.016;25.784;2023-02-28T10:50:50;100952.19;;;13.07;74.52
9523;BME280;63165;43.016;25.784;2023-02-28T10:53:31;100944.28;;;13.09;73.84
9523;BME280;63165;43.016;25.784;2023-02-28T10:56:02;100943.41;;;13.11;73.50
9523;BME280;63165;43.016;25.784;2023-02-28T10:58:31;100936.41;;;13.07;73.49
9523;BME280;63165;43.016;25.784;2023-02-28T11:00:59;100931.97;;;13.14;73.46
9523;BME280;63165;43.016;25.784;2023-02-28T11:03:32;100925.91;;;13.09;73.09
9523;BME280;63165;43.016;25.784;2023-02-28T11:06:07;100924.16;;;13.09;73.18
9523;BME280;63165;43.016;25.784;2023-02-28T11:08:44;100925.88;;;13.10;73.11
9523;BME280;63165;43.016;25.784;2023-02-28T11:11:12;100925.13;;;13.04;72.77
9523;BME280;63165;43.016;25.784;2023-02-28T11:13:39;100919.88;;;13.02;72.90
9523;BME280;63165;43.016;25.784;2023-02-28T11:16:09;100910.31;;;12.95;72.85
9523;BME280;63165;43.016;25.784;2023-02-28T11:18:41;100914.72;;;12.94;73.19
9523;BME280;63165;43.016;25.784;2023-02-28T11:21:16;100914.66;;;12.97;73.43
9523;BME280;63165;43.016;25.784;2023-02-28T11:23:46;100907.63;;;12.98;72.91
9523;BME280;63165;43.016;25.784;2023-02-28T11:26:16;100905.00;;;12.98;73.14
9523;BME280;63165;43.016;25.784;2023-02-28T11:29:09;100902.34;;;13.02;72.87
9523;BME280;63165;43.016;25.784;2023-02-28T11:31:39;100908.47;;;13.03;73.04
9523;BME280;63165;43.016;25.784;2023-02-28T11:34:26;100893.63;;;13.00;73.64
9523;BME280;63165;43.016;25.784;2023-02-28T11:36:58;100899.72;;;13.01;73.39
9523;BME280;63165;43.016;25.784;2023-02-28T11:39:26;100905.84;;;13.01;73.07
9523;BME280;63165;43.016;25.784;2023-02-28T11:42:12;100915.50;;;12.99;73.45
9523;BME280;63165;43.016;25.784;2023-02-28T11:44:51;100916.34;;;13.01;73.77
9523;BME280;63165;43.016;25.784;2023-02-28T11:47:32;100910.25;;;13.01;73.14
9523;BME280;63165;43.016;25.784;2023-02-28T11:50:16;100911.97;;;13.04;73.55
9523;BME280;63165;43.016;25.784;2023-02-28T11:52:52;100902.47;;;12.93;73.61
9523;BME280;63165;43.016;25.784;2023-02-28T11:55:24;100904.22;;;12.93;73.74
9523;BME280;63165;43.016;25.784;2023-02-28T12:00:59;100893.84;;;12.84;74.13
9523;BME280;63165;43.016;25.784;2023-02-28T12:03:34;100888.63;;;12.79;74.05
9523;BME280;63165;43.016;25.784;2023-02-28T12:06:17;100890.41;;;12.77;73.81
9523;BME280;63165;43.016;25.784;2023-02-28T12:09:03;100894.81;;;12.75;74.17
9523;BME280;63165;43.016;25.784;2023-02-28T12:11:40;100906.16;;;12.75;74.29
9523;BME280;63165;43.016;25.784;2023-02-28T12:14:57;100897.47;;;12.72;74.33
9523;BME280;63165;43.016;25.784;2023-02-28T12:17:42;100901.91;;;12.67;74.05
9523;BME280;63165;43.016;25.784;2023-02-28T12:20:24;100886.19;;;12.65;73.92
9523;BME280;63165;43.016;25.784;2023-02-28T12:23:06;100900.22;;;12.62;73.74
9523;BME280;63165;43.016;25.784;2023-02-28T12:26:09;100899.41;;;12.57;74.23
9523;BME280;63165;43.016;25.784;2023-02-28T12:28:43;100894.19;;;12.53;74.33
9523;BME280;63165;43.016;25.784;2023-02-28T12:31:18;100901.19;;;12.51;74.65
9523;BME280;63165;43.016;25.784;2023-02-28T12:33:53;100906.44;;;12.51;74.62
9523;BME280;63165;43.016;25.784;2023-02-28T12:36:23;100900.34;;;12.52;75.38
9523;BME280;63165;43.016;25.784;2023-02-28T12:38:55;100898.59;;;12.49;74.75
9523;BME280;63165;43.016;25.784;2023-02-28T12:41:29;100893.41;;;12.46;74.95
9523;BME280;63165;43.016;25.784;2023-02-28T12:44:03;100891.63;;;12.45;75.16
9523;BME280;63165;43.016;25.784;2023-02-28T12:46:35;100880.38;;;12.34;75.22
9523;BME280;63165;43.016;25.784;2023-02-28T12:49:09;100885.53;;;12.43;75.52
9523;BME280;63165;43.016;25.784;2023-02-28T12:51:41;100891.63;;;12.45;75.46
9523;BME280;63165;43.016;25.784;2023-02-28T12:54:14;100883.81;;;12.42;75.21
9523;BME280;63165;43.016;25.784;2023-02-28T12:56:49;100889.13;;;12.36;75.07
9523;BME280;63165;43.016;25.784;2023-02-28T12:59:25;100883.06;;;12.31;74.85
9523;BME280;63165;43.016;25.784;2023-02-28T13:05:19;100875.22;;;12.28;74.72
9523;BME280;63165;43.016;25.784;2023-02-28T13:10:58;100878.78;;;12.22;74.92
9523;BME280;63165;43.016;25.784;2023-02-28T13:13:29;100890.97;;;12.26;74.91
9523;BME280;63165;43.016;25.784;2023-02-28T13:16:00;100890.97;;;12.28;74.98
9523;BME280;63165;43.016;25.784;2023-02-28T13:18:31;100905.81;;;12.29;75.04
9523;BME280;63165;43.016;25.784;2023-02-28T13:21:00;100897.06;;;12.28;75.58
9523;BME280;63165;43.016;25.784;2023-02-28T13:24:00;100897.13;;;12.22;76.03
9523;BME280;63165;43.016;25.784;2023-02-28T13:29:35;100906.13;;;11.95;76.38